Time;durP1;ratioP1;P1;durP2;ratioP2;P2;SDS_P1;SDS_P2;PMS_P1;PMS_P2;Temp;Humidity;BMP_temperature;BMP_pressure;BME280_temperature;BME280_humidity;BME280_pressure;Samples;Min_cycle;Max_cycle;Signal;HPM_P1;HPM_P2
2023/08/07 00:00:08;;;;;;;5.28;1.98;;;15.90;81.90;;;;;;6166820;23;20024;-96
2023/08/07 00:02:36;;;;;;;5.78;1.80;;;15.90;82.10;;;;;;6167318;23;20059;-95
2023/08/07 00:05:04;;;;;;;4.25;1.63;;;15.90;82.20;;;;;;6166549;23;20027;-96
2023/08/07 00:07:32;;;;;;;4.37;1.63;;;15.90;82.20;;;;;;6167007;23;20024;-95
2023/08/07 00:10:01;;;;;;;3.60;1.50;;;15.90;82.30;;;;;;6167107;23;20080;-95
2023/08/07 00:12:28;;;;;;;3.97;1.50;;;16.00;82.30;;;;;;6166818;23;20024;-95
2023/08/07 00:14:55;;;;;;;4.57;1.50;;;15.90;82.70;;;;;;6166975;23;20048;-96
2023/08/07 00:17:22;;;;;;;3.17;1.33;;;15.90;82.40;;;;;;6166420;23;20516;-95
2023/08/07 00:19:49;;;;;;;3.87;1.30;;;16.00;82.50;;;;;;6166971;23;20016;-96
2023/08/07 00:22:16;;;;;;;4.70;1.20;;;16.00;82.20;;;;;;6166772;23;20040;-95
2023/08/07 00:24:43;;;;;;;4.95;1.30;;;16.10;82.30;;;;;;6166856;23;20020;-96
2023/08/07 00:27:12;;;;;;;3.92;1.08;;;16.10;82.20;;;;;;6166949;23;20016;-95
2023/08/07 00:29:39;;;;;;;3.80;1.50;;;16.10;82.40;;;;;;6166518;23;20051;-95
2023/08/07 00:32:07;;;;;;;3.67;1.57;;;16.10;82.30;;;;;;6166986;23;20516;-94
2023/08/07 00:34:34;;;;;;;4.03;1.40;;;16.10;82.60;;;;;;6191546;23;20037;-96
2023/08/07 00:37:01;;;;;;;3.28;1.20;;;16.00;82.50;;;;;;6166951;23;20020;-95
2023/08/07 00:39:28;;;;;;;5.13;1.60;;;16.00;82.40;;;;;;6166914;23;20027;-96
2023/08/07 00:41:56;;;;;;;3.88;1.55;;;16.00;82.70;;;;;;6166440;23;20418;-95
2023/08/07 00:44:23;;;;;;;4.77;1.60;;;16.10;82.70;;;;;;6167203;23;20311;-96
2023/08/07 00:46:51;;;;;;;4.03;1.40;;;16.00;82.80;;;;;;6191206;23;20447;-96
2023/08/07 00:49:19;;;;;;;5.35;1.58;;;16.00;82.90;;;;;;6167152;23;20036;-96
2023/08/07 00:51:47;;;;;;;4.68;1.30;;;16.00;83.00;;;;;;6166880;23;20114;-95
2023/08/07 00:54:18;;;;;;;3.50;1.10;;;16.10;83.00;;;;;;6167378;23;20028;-96
2023/08/07 00:56:45;;;;;;;4.43;1.23;;;16.10;82.90;;;;;;6167482;23;20078;-96
2023/08/07 00:59:14;;;;;;;2.50;1.02;;;16.10;82.80;;;;;;6166628;23;20020;-95
2023/08/07 01:01:42;;;;;;;4.38;1.20;;;16.00;82.80;;;;;;6166320;23;20020;-96
2023/08/07 01:04:09;;;;;;;3.55;1.20;;;16.00;83.10;;;;;;6166109;23;20055;-95
2023/08/07 01:06:36;;;;;;;4.00;1.02;;;16.00;82.90;;;;;;6166030;23;20023;-96
2023/08/07 01:09:04;;;;;;;4.80;0.90;;;16.00;83.10;;;;;;6166467;23;20535;-95
2023/08/07 01:11:57;;;;;;;3.08;1.00;;;16.00;83.10;;;;;;6166482;23;20024;-96
2023/08/07 01:14:55;;;;;;;4.03;1.05;;;16.00;83.10;;;;;;6166360;23;20467;-96
2023/08/07 01:17:23;;;;;;;5.10;1.00;;;16.00;82.90;;;;;;6166702;23;20451;-96
2023/08/07 01:19:52;;;;;;;3.75;1.15;;;15.90;83.20;;;;;;6166748;23;20024;-96
2023/08/07 01:22:20;;;;;;;2.57;0.70;;;16.00;83.10;;;;;;6166577;23;20020;-95
2023/08/07 01:24:49;;;;;;;4.05;0.93;;;15.90;82.90;;;;;;6166576;23;20021;-95
2023/08/07 01:27:19;;;;;;;5.88;1.30;;;16.00;82.90;;;;;;6166354;23;20502;-96
2023/08/07 01:29:59;;;;;;;3.13;0.73;;;15.90;82.90;;;;;;6166102;23;20043;-96
2023/08/07 01:32:48;;;;;;;3.10;0.88;;;15.90;83.00;;;;;;6166410;23;20451;-96
2023/08/07 01:35:17;;;;;;;1.87;0.60;;;15.80;83.40;;;;;;6166229;23;20070;-96
2023/08/07 01:37:46;;;;;;;3.13;0.80;;;15.80;83.20;;;;;;6166946;23;20017;-96
2023/08/07 01:40:15;;;;;;;2.28;0.70;;;15.70;83.40;;;;;;6166738;23;20076;-96
2023/08/07 01:42:44;;;;;;;1.70;0.60;;;15.70;83.80;;;;;;6167008;23;20025;-94
2023/08/07 01:45:11;;;;;;;1.88;0.70;;;15.70;83.70;;;;;;6166541;23;20012;-95
2023/08/07 01:47:38;;;;;;;3.83;0.80;;;15.70;83.70;;;;;;6166456;23;20050;-96
2023/08/07 01:50:06;;;;;;;1.80;0.63;;;15.60;84.00;;;;;;6166945;23;20024;-96
2023/08/07 01:52:36;;;;;;;3.17;0.50;;;15.70;83.90;;;;;;6167128;23;20016;-95
2023/08/07 01:55:04;;;;;;;1.42;0.47;;;15.60;84.20;;;;;;6166071;23;20020;-96
2023/08/07 01:57:32;;;;;;;2.42;0.70;;;15.60;84.20;;;;;;6166325;23;20513;-95
2023/08/07 01:59:59;;;;;;;3.40;0.80;;;15.50;84.50;;;;;;6165957;23;20075;-94
2023/08/07 02:02:55;;;;;;;2.55;0.60;;;15.50;84.50;;;;;;5996280;23;20029;-87
2023/08/07 02:05:23;;;;;;;1.77;0.60;;;15.50;84.80;;;;;;6165630;23;20050;-88
2023/08/07 02:07:50;;;;;;;2.17;0.50;;;15.50;85.20;;;;;;6165039;23;20048;-88
2023/08/07 02:10:20;;;;;;;2.25;0.80;;;15.40;85.70;;;;;;6190029;23;20012;-88
2023/08/07 02:12:47;;;;;;;1.80;0.77;;;15.40;85.80;;;;;;6214814;23;20021;-88
2023/08/07 02:15:14;;;;;;;4.32;0.70;;;15.40;85.60;;;;;;6214845;23;20458;-88
2023/08/07 02:17:42;;;;;;;2.38;0.70;;;15.40;85.20;;;;;;6190086;23;20044;-88
2023/08/07 02:20:09;;;;;;;3.58;0.60;;;15.30;85.40;;;;;;6189868;23;20024;-88
2023/08/07 02:22:37;;;;;;;2.45;0.70;;;15.30;85.60;;;;;;6165424;23;20017;-88
2023/08/07 02:25:04;;;;;;;2.63;0.57;;;15.30;85.40;;;;;;6165167;23;20067;-88
2023/08/07 02:27:31;;;;;;;2.78;0.60;;;15.30;85.50;;;;;;6166095;23;20021;-88
2023/08/07 02:29:58;;;;;;;3.50;0.60;;;15.30;85.00;;;;;;6167459;23;20024;-88
2023/08/07 02:32:25;;;;;;;1.70;0.45;;;15.30;85.10;;;;;;6167165;23;20023;-88
2023/08/07 02:34:53;;;;;;;1.90;0.50;;;15.30;85.20;;;;;;6216455;23;20028;-88
2023/08/07 02:37:23;;;;;;;1.53;0.50;;;15.20;85.30;;;;;;6167459;23;20021;-88
2023/08/07 02:39:50;;;;;;;1.50;0.50;;;15.30;85.50;;;;;;6216253;23;20023;-88
2023/08/07 02:42:17;;;;;;;3.03;0.60;;;15.40;85.40;;;;;;6216473;23;20107;-88
2023/08/07 02:44:44;;;;;;;4.13;0.50;;;15.40;85.20;;;;;;6191640;23;20085;-88
2023/08/07 02:47:11;;;;;;;2.22;0.70;;;15.40;85.00;;;;;;6216648;23;20023;-88
2023/08/07 02:49:38;;;;;;;2.87;0.50;;;15.30;85.00;;;;;;6216306;23;20024;-88
2023/08/07 02:52:06;;;;;;;1.95;0.45;;;15.30;84.90;;;;;;6216440;23;20016;-88
2023/08/07 02:54:33;;;;;;;4.82;0.77;;;15.40;84.60;;;;;;6167107;23;20025;-88
2023/08/07 02:57:00;;;;;;;0.95;0.40;;;15.40;84.70;;;;;;6191724;23;20498;-88
2023/08/07 02:59:27;;;;;;;2.67;0.50;;;15.30;84.50;;;;;;6191524;23;20339;-88
2023/08/07 03:01:55;;;;;;;1.30;0.30;;;15.30;84.50;;;;;;6167072;23;20099;-88
2023/08/07 03:04:22;;;;;;;1.88;0.32;;;15.20;84.20;;;;;;6215974;23;20064;-88
2023/08/07 03:06:49;;;;;;;2.42;0.35;;;15.30;84.20;;;;;;6162584;23;20080;-88
2023/08/07 03:09:16;;;;;;;3.30;0.40;;;15.20;84.10;;;;;;6167390;23;20021;-88
2023/08/07 03:11:43;;;;;;;1.98;0.30;;;15.20;84.30;;;;;;6216759;23;20040;-88
2023/08/07 03:14:10;;;;;;;1.33;0.40;;;15.20;83.90;;;;;;6216438;23;20025;-87
2023/08/07 03:16:37;;;;;;;2.42;0.38;;;15.10;83.70;;;;;;6166925;23;20107;-88
2023/08/07 03:19:04;;;;;;;0.70;0.20;;;15.20;83.40;;;;;;6191167;23;20099;-88
2023/08/07 03:21:32;;;;;;;0.90;0.30;;;15.10;83.30;;;;;;6166974;23;20027;-88
2023/08/07 03:23:59;;;;;;;3.22;0.40;;;15.10;83.50;;;;;;6166707;23;20016;-88
2023/08/07 03:26:26;;;;;;;2.70;0.50;;;15.10;83.60;;;;;;6167480;23;20027;-87
2023/08/07 03:28:54;;;;;;;1.60;0.40;;;15.10;83.30;;;;;;6191432;23;20078;-88
2023/08/07 03:31:21;;;;;;;1.15;0.40;;;15.20;83.00;;;;;;6161890;23;20025;-88
2023/08/07 03:33:49;;;;;;;3.38;0.30;;;15.20;83.00;;;;;;6187340;23;20031;-88
2023/08/07 03:36:17;;;;;;;1.20;0.30;;;15.20;83.00;;;;;;6175414;23;20024;-88
2023/08/07 03:38:45;;;;;;;0.80;0.20;;;15.20;82.70;;;;;;6156854;23;20049;-88
2023/08/07 03:41:12;;;;;;;0.85;0.20;;;15.20;82.80;;;;;;6161397;23;20068;-88
2023/08/07 03:43:41;;;;;;;0.90;0.30;;;15.30;82.70;;;;;;6180920;23;20104;-87
2023/08/07 03:46:08;;;;;;;0.98;0.30;;;15.30;82.40;;;;;;6190843;23;20044;-89
2023/08/07 03:48:35;;;;;;;1.63;0.30;;;15.20;82.20;;;;;;6167075;23;20446;-88
2023/08/07 03:51:10;;;;;;;0.57;0.20;;;15.20;82.30;;;;;;6191251;23;20020;-88
2023/08/07 03:53:45;;;;;;;0.43;0.20;;;15.20;81.80;;;;;;6191205;23;20031;-88
2023/08/07 03:56:13;;;;;;;1.48;0.38;;;15.20;81.70;;;;;;6180036;23;20040;-88
2023/08/07 03:58:53;;;;;;;1.20;0.20;;;15.20;82.10;;;;;;6161177;23;20017;-88
2023/08/07 04:01:23;;;;;;;1.90;0.30;;;15.20;82.10;;;;;;6162064;23;20104;-88
2023/08/07 04:03:50;;;;;;;0.50;0.20;;;15.20;81.60;;;;;;6187189;23;20402;-88
2023/08/07 04:06:17;;;;;;;1.55;0.30;;;15.20;81.50;;;;;;6186382;23;20328;-88
2023/08/07 04:08:48;;;;;;;0.80;0.28;;;15.20;81.70;;;;;;6186070;23;21068;-88
2023/08/07 04:11:15;;;;;;;1.52;0.35;;;15.20;82.20;;;;;;6210989;23;20021;-88
2023/08/07 04:13:42;;;;;;;0.77;0.30;;;15.30;81.90;;;;;;6160813;23;20112;-88
2023/08/07 04:16:10;;;;;;;2.60;0.20;;;15.20;81.60;;;;;;6190721;23;20028;-88
2023/08/07 04:18:37;;;;;;;0.75;0.20;;;15.20;81.40;;;;;;6165783;23;20070;-89
2023/08/07 04:21:04;;;;;;;0.65;0.20;;;15.30;81.40;;;;;;6190291;23;20025;-88
2023/08/07 04:23:31;;;;;;;1.90;0.32;;;15.20;81.00;;;;;;6166368;23;20500;-88
2023/08/07 04:25:59;;;;;;;0.82;0.20;;;15.30;81.30;;;;;;6191111;23;20087;-89
2023/08/07 04:28:29;;;;;;;1.47;0.20;;;15.20;81.10;;;;;;6191146;23;20020;-88
2023/08/07 04:30:56;;;;;;;3.90;0.30;;;15.30;80.90;;;;;;6191069;23;20020;-88
2023/08/07 04:33:23;;;;;;;0.68;0.20;;;15.20;80.90;;;;;;6161778;23;20021;-88
2023/08/07 04:35:50;;;;;;;2.85;0.20;;;15.20;80.40;;;;;;6182433;23;20071;-88
2023/08/07 04:38:17;;;;;;;1.00;0.20;;;15.30;80.40;;;;;;6161126;23;20017;-88
2023/08/07 04:40:49;;;;;;;1.83;0.23;;;15.20;80.20;;;;;;6180756;23;20024;-88
2023/08/07 04:43:17;;;;;;;0.30;0.10;;;15.30;80.40;;;;;;6138106;23;20075;-88
2023/08/07 04:45:45;;;;;;;0.85;0.20;;;15.30;80.10;;;;;;6180161;23;20024;-88
2023/08/07 04:48:13;;;;;;;0.70;0.20;;;15.30;79.90;;;;;;6149657;23;20037;-89
2023/08/07 04:50:41;;;;;;;0.75;0.30;;;15.30;79.90;;;;;;6210466;23;20031;-88
2023/08/07 04:53:08;;;;;;;0.63;0.20;;;15.30;80.20;;;;;;6190525;23;20017;-88
2023/08/07 04:55:36;;;;;;;1.33;0.20;;;15.20;80.80;;;;;;6190971;23;20017;-88
2023/08/07 04:58:03;;;;;;;1.52;0.28;;;15.10;80.80;;;;;;6189841;23;20455;-89
2023/08/07 05:00:30;;;;;;;1.35;0.30;;;15.10;81.00;;;;;;6160909;23;20095;-88
2023/08/07 05:02:57;;;;;;;1.08;0.30;;;15.00;81.50;;;;;;6163379;23;20024;-89
2023/08/07 05:05:25;;;;;;;1.03;0.20;;;15.10;81.70;;;;;;6160820;23;20100;-88
2023/08/07 05:07:52;;;;;;;0.90;0.25;;;15.10;81.10;;;;;;6186852;23;20013;-88
2023/08/07 05:10:19;;;;;;;0.80;0.20;;;15.10;81.00;;;;;;6160821;23;20071;-89
2023/08/07 05:12:46;;;;;;;2.15;0.25;;;15.20;80.90;;;;;;6186015;23;20043;-88
2023/08/07 05:15:13;;;;;;;2.13;0.30;;;15.20;80.90;;;;;;6166291;23;20500;-89
2023/08/07 05:17:41;;;;;;;1.63;0.30;;;15.20;81.30;;;;;;6190531;23;20099;-89
2023/08/07 05:20:08;;;;;;;1.00;0.30;;;15.20;81.20;;;;;;6190577;23;20023;-88
2023/08/07 05:22:37;;;;;;;2.35;0.57;;;15.20;81.30;;;;;;6165790;23;20013;-88
2023/08/07 05:25:04;;;;;;;1.15;0.40;;;15.30;81.30;;;;;;6190729;23;20103;-88
2023/08/07 05:27:31;;;;;;;2.75;0.40;;;15.30;81.40;;;;;;6185573;23;20032;-89
2023/08/07 05:29:59;;;;;;;3.93;0.30;;;15.30;81.20;;;;;;6163939;23;20071;-88
2023/08/07 05:32:26;;;;;;;1.30;0.30;;;15.30;80.40;;;;;;6160500;23;20451;-88
2023/08/07 05:34:54;;;;;;;1.25;0.40;;;15.30;80.70;;;;;;6211915;23;20024;-89
2023/08/07 05:37:21;;;;;;;1.88;0.40;;;15.30;80.40;;;;;;6185409;23;20024;-89
2023/08/07 05:39:48;;;;;;;2.25;0.77;;;15.30;80.70;;;;;;6165587;23;20398;-88
2023/08/07 05:42:15;;;;;;;2.67;0.60;;;15.30;80.80;;;;;;6161046;23;20063;-89
2023/08/07 05:44:42;;;;;;;0.85;0.20;;;15.50;81.00;;;;;;6185431;23;20103;-89
2023/08/07 05:47:09;;;;;;;1.75;0.25;;;15.50;79.70;;;;;;6215441;23;20012;-88
2023/08/07 05:49:36;;;;;;;3.03;0.30;;;15.50;79.90;;;;;;6160941;23;20021;-89
2023/08/07 05:52:04;;;;;;;1.92;0.20;;;15.50;80.00;;;;;;6213983;23;20025;-89
2023/08/07 05:54:31;;;;;;;1.53;0.20;;;15.50;79.50;;;;;;6190449;23;20021;-88
2023/08/07 05:56:58;;;;;;;1.85;0.30;;;15.50;80.00;;;;;;6215907;23;20024;-88
2023/08/07 05:59:25;;;;;;;2.35;0.30;;;15.50;79.30;;;;;;6165647;23;20016;-89
2023/08/07 06:01:53;;;;;;;1.30;0.20;;;15.70;79.80;;;;;;6186467;23;20137;-89
2023/08/07 06:04:24;;;;;;;1.35;0.20;;;15.80;79.30;;;;;;6160910;23;20021;-89
2023/08/07 06:06:51;;;;;;;2.37;0.20;;;16.00;79.10;;;;;;6156845;23;20036;-88
2023/08/07 06:09:19;;;;;;;0.43;0.10;;;16.00;78.70;;;;;;6179671;23;20095;-89
2023/08/07 06:11:46;;;;;;;1.10;0.30;;;16.10;77.50;;;;;;6190525;23;20021;-88
2023/08/07 06:14:13;;;;;;;1.02;0.30;;;16.10;77.80;;;;;;6190155;23;20071;-89
2023/08/07 06:16:43;;;;;;;2.72;0.30;;;16.10;77.90;;;;;;6161151;23;20021;-88
2023/08/07 06:19:10;;;;;;;0.60;0.20;;;16.10;77.20;;;;;;6190040;23;20351;-88
2023/08/07 06:21:55;;;;;;;1.23;0.30;;;16.10;77.60;;;;;;6193935;23;20051;-88
2023/08/07 06:24:25;;;;;;;0.88;0.20;;;16.10;77.70;;;;;;6159840;23;20473;-88
2023/08/07 06:26:52;;;;;;;2.13;0.30;;;16.10;77.80;;;;;;6207703;23;20067;-88
2023/08/07 06:29:19;;;;;;;1.58;0.20;;;16.10;78.50;;;;;;6160032;23;20021;-88
2023/08/07 06:31:46;;;;;;;2.47;0.40;;;16.10;77.70;;;;;;6185201;23;20025;-88
2023/08/07 06:34:13;;;;;;;2.42;0.22;;;16.00;77.70;;;;;;6165509;23;20027;-88
2023/08/07 06:36:40;;;;;;;2.20;0.30;;;16.00;78.40;;;;;;6190232;23;20043;-88
2023/08/07 06:39:07;;;;;;;1.35;0.30;;;16.00;78.70;;;;;;6190131;23;20117;-88
2023/08/07 06:41:36;;;;;;;4.15;0.90;;;16.00;77.80;;;;;;6190190;23;20016;-88
2023/08/07 06:44:03;;;;;;;1.00;0.30;;;15.90;78.50;;;;;;6164028;23;20049;-88
2023/08/07 06:46:30;;;;;;;1.33;0.30;;;16.00;78.50;;;;;;6189800;23;20043;-88
2023/08/07 06:48:57;;;;;;;1.85;0.30;;;16.00;78.50;;;;;;6215404;23;20016;-88
2023/08/07 06:51:24;;;;;;;1.45;0.30;;;16.10;78.20;;;;;;6165179;23;20012;-88
2023/08/07 06:53:51;;;;;;;4.32;0.55;;;16.10;77.50;;;;;;6165381;23;20016;-88
2023/08/07 06:56:18;;;;;;;1.37;0.20;;;16.10;78.20;;;;;;6189996;23;20020;-88
2023/08/07 06:58:45;;;;;;;2.75;0.40;;;16.20;78.50;;;;;;6184966;23;20017;-88
2023/08/07 07:01:13;;;;;;;0.60;0.20;;;16.20;77.90;;;;;;6173019;23;20470;-88
2023/08/07 07:03:40;;;;;;;1.63;0.30;;;16.20;77.50;;;;;;6158897;23;20435;-88
2023/08/07 07:06:07;;;;;;;0.80;0.30;;;16.30;77.80;;;;;;6189648;23;20020;-88
2023/08/07 07:08:34;;;;;;;5.90;0.50;;;16.40;77.30;;;;;;6189998;23;20020;-88
2023/08/07 07:11:01;;;;;;;4.47;0.80;;;16.50;76.60;;;;;;6214378;23;20020;-88
2023/08/07 07:13:28;;;;;;;2.97;0.47;;;16.50;77.30;;;;;;6165807;23;20027;-88
2023/08/07 07:15:55;;;;;;;2.75;0.40;;;16.50;76.90;;;;;;6166857;23;20020;-88
2023/08/07 07:18:23;;;;;;;2.78;0.30;;;16.40;76.60;;;;;;6166721;23;20048;-88
2023/08/07 07:21:00;;;;;;;4.37;0.83;;;16.30;76.20;;;;;;6215990;23;20040;-88
2023/08/07 07:23:28;;;;;;;5.00;0.50;;;16.40;77.00;;;;;;6192022;23;20016;-88
2023/08/07 07:25:55;;;;;;;3.47;0.40;;;16.40;77.30;;;;;;6191498;23;20024;-88
2023/08/07 07:28:22;;;;;;;1.33;0.20;;;16.50;77.50;;;;;;6191482;23;20067;-88
2023/08/07 07:30:50;;;;;;;1.10;0.30;;;16.50;75.80;;;;;;6191347;23;20468;-88
2023/08/07 07:33:17;;;;;;;1.13;0.33;;;16.50;76.30;;;;;;6191306;23;20028;-88
2023/08/07 07:35:44;;;;;;;0.90;0.40;;;16.50;76.00;;;;;;6191437;23;20384;-88
2023/08/07 07:38:11;;;;;;;2.13;0.38;;;16.40;77.10;;;;;;6191228;23;20075;-88
2023/08/07 07:40:38;;;;;;;1.05;0.20;;;16.30;76.80;;;;;;6191227;23;20048;-88
2023/08/07 07:43:06;;;;;;;0.65;0.20;;;16.30;77.10;;;;;;6191246;23;20055;-88
2023/08/07 07:45:35;;;;;;;0.73;0.20;;;16.30;76.60;;;;;;6161640;23;20071;-88
2023/08/07 07:48:04;;;;;;;0.73;0.20;;;16.40;76.50;;;;;;6165257;23;20040;-88
2023/08/07 07:50:31;;;;;;;0.47;0.20;;;16.40;76.50;;;;;;6161485;23;20131;-89
2023/08/07 07:52:58;;;;;;;1.48;0.30;;;16.40;77.00;;;;;;6213866;23;20021;-88
2023/08/07 07:55:25;;;;;;;2.30;0.30;;;16.50;76.80;;;;;;6166115;23;20016;-88
2023/08/07 07:57:54;;;;;;;0.90;0.30;;;16.50;77.50;;;;;;6163287;23;20016;-88
2023/08/07 08:00:26;;;;;;;0.40;0.20;;;16.40;76.60;;;;;;6191223;23;20104;-88
2023/08/07 08:02:53;;;;;;;1.08;0.20;;;16.40;76.80;;;;;;6162895;23;20028;-89
2023/08/07 08:05:21;;;;;;;1.67;0.20;;;16.40;76.70;;;;;;6166377;23;20016;-89
2023/08/07 08:07:48;;;;;;;0.50;0.30;;;16.50;77.00;;;;;;6162290;23;20096;-88
2023/08/07 08:10:16;;;;;;;1.53;0.30;;;16.60;76.10;;;;;;6161385;23;20108;-88
2023/08/07 08:12:43;;;;;;;0.98;0.30;;;16.80;75.80;;;;;;6186070;23;20017;-88
2023/08/07 08:15:10;;;;;;;1.00;0.20;;;16.90;75.10;;;;;;6203308;23;20083;-88
2023/08/07 08:17:38;;;;;;;0.35;0.20;;;17.00;75.10;;;;;;6161449;23;20049;-88
2023/08/07 08:20:07;;;;;;;0.90;0.20;;;17.00;74.50;;;;;;6214482;23;20012;-88
2023/08/07 08:22:37;;;;;;;0.57;0.20;;;17.00;75.10;;;;;;6162194;23;20036;-88
2023/08/07 08:25:04;;;;;;;1.48;0.30;;;17.10;75.10;;;;;;6213510;23;20020;-88
2023/08/07 08:27:31;;;;;;;1.42;0.30;;;17.10;74.40;;;;;;6191055;23;20067;-88
2023/08/07 08:29:59;;;;;;;0.85;0.20;;;17.10;73.70;;;;;;6190972;23;20044;-88
2023/08/07 08:32:26;;;;;;;1.92;0.30;;;17.00;74.10;;;;;;6190962;23;20047;-88
2023/08/07 08:34:56;;;;;;;2.30;0.70;;;17.20;74.80;;;;;;6215220;23;20075;-89
2023/08/07 08:37:23;;;;;;;1.05;0.30;;;17.30;74.50;;;;;;6185902;23;20020;-88
2023/08/07 08:39:50;;;;;;;0.60;0.20;;;17.50;73.80;;;;;;6211433;23;20048;-89
2023/08/07 08:42:17;;;;;;;1.50;0.70;;;17.50;73.60;;;;;;6185615;23;20017;-89
2023/08/07 08:44:55;;;;;;;1.27;0.30;;;17.40;73.20;;;;;;6185734;23;20044;-89
2023/08/07 08:47:25;;;;;;;0.70;0.30;;;17.40;73.00;;;;;;6185744;23;20020;-89
2023/08/07 08:50:07;;;;;;;0.43;0.20;;;17.30;72.60;;;;;;6187099;23;20522;-88
2023/08/07 08:52:37;;;;;;;0.60;0.20;;;17.40;73.70;;;;;;6161222;23;20024;-89
2023/08/07 08:55:06;;;;;;;0.60;0.22;;;17.50;72.60;;;;;;6189697;23;20023;-88
2023/08/07 08:57:34;;;;;;;0.57;0.28;;;17.40;72.40;;;;;;6160396;23;20035;-89
2023/08/07 09:00:17;;;;;;;1.60;0.30;;;17.30;72.90;;;;;;6164071;23;20023;-89
2023/08/07 09:02:45;;;;;;;2.05;0.40;;;17.10;73.20;;;;;;6185614;23;20017;-88
2023/08/07 09:05:15;;;;;;;0.90;0.30;;;17.20;73.70;;;;;;6165707;23;20043;-88
2023/08/07 09:07:43;;;;;;;1.35;0.30;;;17.40;74.40;;;;;;6165995;23;20454;-89
2023/08/07 09:10:13;;;;;;;1.15;0.20;;;17.50;73.20;;;;;;6190502;23;20044;-89
2023/08/07 09:12:45;;;;;;;2.20;0.20;;;17.50;73.10;;;;;;6160620;23;20398;-89
2023/08/07 09:15:16;;;;;;;0.70;0.30;;;17.50;72.40;;;;;;6165599;23;20051;-89
2023/08/07 09:17:46;;;;;;;0.93;0.20;;;17.60;73.20;;;;;;6215443;23;20027;-89
2023/08/07 09:20:14;;;;;;;0.90;0.30;;;17.60;72.90;;;;;;6166066;23;20354;-89
2023/08/07 09:22:42;;;;;;;2.25;0.30;;;17.50;72.90;;;;;;6165554;23;20451;-89
2023/08/07 09:25:13;;;;;;;1.87;0.30;;;17.50;72.80;;;;;;6165722;23;20021;-89
2023/08/07 09:27:40;;;;;;;2.47;0.40;;;17.50;72.30;;;;;;6185724;23;20024;-88
2023/08/07 09:30:11;;;;;;;1.65;0.60;;;17.50;73.20;;;;;;6189409;23;20405;-89
2023/08/07 09:32:39;;;;;;;1.30;0.50;;;17.50;73.30;;;;;;6160699;23;20394;-88
2023/08/07 09:35:08;;;;;;;0.90;0.30;;;17.30;73.30;;;;;;6214358;23;20021;-89
2023/08/07 09:37:36;;;;;;;0.90;0.30;;;17.30;74.00;;;;;;6190056;23;20518;-89
2023/08/07 09:40:04;;;;;;;0.70;0.30;;;17.20;73.60;;;;;;6164508;23;20048;-89
2023/08/07 09:42:32;;;;;;;0.98;0.32;;;17.20;73.80;;;;;;6160173;23;20021;-89
2023/08/07 09:45:00;;;;;;;0.82;0.20;;;17.20;73.90;;;;;;6187827;23;20068;-88
2023/08/07 09:47:28;;;;;;;0.63;0.20;;;17.10;74.10;;;;;;6165444;23;20039;-88
2023/08/07 09:49:56;;;;;;;2.33;0.40;;;17.10;76.10;;;;;;6215018;23;20027;-89
2023/08/07 09:52:25;;;;;;;0.40;0.20;;;17.10;75.80;;;;;;6184948;23;20350;-89
2023/08/07 09:54:57;;;;;;;0.90;0.30;;;17.00;75.80;;;;;;6160562;23;20439;-92
2023/08/07 09:57:24;;;;;;;2.15;0.40;;;17.00;75.60;;;;;;6149258;23;20024;-86
2023/08/07 09:59:52;;;;;;;2.15;0.35;;;16.80;76.80;;;;;;6210101;23;20028;-86
2023/08/07 10:02:20;;;;;;;2.27;0.40;;;16.80;77.70;;;;;;6183957;23;20091;-86
2023/08/07 10:04:50;;;;;;;1.63;0.30;;;16.80;77.30;;;;;;6210589;23;20012;-86
2023/08/07 10:07:17;;;;;;;1.20;0.40;;;16.70;77.70;;;;;;6214081;23;20023;-86
2023/08/07 10:09:45;;;;;;;1.00;0.50;;;16.80;78.30;;;;;;6183631;23;20021;-86
2023/08/07 10:12:13;;;;;;;1.50;0.50;;;16.80;78.10;;;;;;6159082;23;20474;-87
2023/08/07 10:14:42;;;;;;;2.13;0.50;;;16.70;78.30;;;;;;6153562;23;20451;-87
2023/08/07 10:17:10;;;;;;;1.17;0.38;;;16.70;79.10;;;;;;6146973;23;20033;-87
2023/08/07 10:19:38;;;;;;;1.05;0.35;;;16.80;78.30;;;;;;6184439;23;20025;-87
2023/08/07 10:22:06;;;;;;;1.65;0.40;;;16.80;78.80;;;;;;6213433;23;20099;-86
2023/08/07 10:24:36;;;;;;;1.00;0.35;;;16.90;78.90;;;;;;6189314;23;20358;-87
2023/08/07 10:27:05;;;;;;;1.00;0.30;;;16.90;78.90;;;;;;6188330;23;20024;-87
2023/08/07 10:29:33;;;;;;;0.95;0.40;;;16.90;77.90;;;;;;6163939;23;20020;-87
2023/08/07 10:32:01;;;;;;;2.63;0.50;;;16.70;78.20;;;;;;6187052;23;20051;-87
2023/08/07 10:34:30;;;;;;;0.63;0.30;;;16.70;78.80;;;;;;6189256;23;20055;-87
2023/08/07 10:36:57;;;;;;;0.80;0.30;;;16.70;79.10;;;;;;6164587;23;20099;-87
2023/08/07 10:39:25;;;;;;;0.77;0.33;;;16.70;78.30;;;;;;6164877;23;20021;-87
2023/08/07 10:41:55;;;;;;;0.98;0.30;;;16.80;79.50;;;;;;6213675;23;20012;-86
2023/08/07 10:44:30;;;;;;;1.02;0.30;;;16.80;79.00;;;;;;6159214;23;20021;-87
2023/08/07 10:46:58;;;;;;;0.80;0.20;;;16.80;77.90;;;;;;6184252;23;20009;-87
2023/08/07 10:49:37;;;;;;;0.73;0.30;;;16.70;78.20;;;;;;6215691;23;20013;-87
2023/08/07 10:52:16;;;;;;;0.63;0.20;;;16.70;79.50;;;;;;6165171;23;20017;-88
2023/08/07 10:54:49;;;;;;;1.25;0.20;;;16.70;79.70;;;;;;6166354;23;20406;-86
2023/08/07 10:57:18;;;;;;;2.45;0.30;;;16.70;80.00;;;;;;6161245;23;20336;-86
2023/08/07 11:00:00;;;;;;;1.20;0.30;;;16.70;80.20;;;;;;6186219;23;20443;-87
2023/08/07 11:02:30;;;;;;;0.77;0.20;;;16.60;79.10;;;;;;6185490;23;20337;-87
2023/08/07 11:04:57;;;;;;;0.60;0.20;;;16.60;79.30;;;;;;6158081;23;20021;-87
2023/08/07 11:07:27;;;;;;;0.50;0.20;;;16.50;80.70;;;;;;6139750;23;20017;-87
2023/08/07 11:09:55;;;;;;;0.88;0.20;;;16.60;80.60;;;;;;6212483;23;20095;-87
2023/08/07 11:12:26;;;;;;;0.73;0.30;;;16.50;80.80;;;;;;6161266;23;20439;-87
2023/08/07 11:14:56;;;;;;;0.57;0.20;;;16.50;80.50;;;;;;6190528;23;20024;-86
2023/08/07 11:17:28;;;;;;;0.70;0.20;;;16.50;80.00;;;;;;6206468;23;20021;-87
2023/08/07 11:19:56;;;;;;;1.00;0.30;;;16.50;80.10;;;;;;6163228;23;20787;-86
2023/08/07 11:22:23;;;;;;;1.45;0.20;;;16.60;80.60;;;;;;6185858;23;20110;-87
2023/08/07 11:24:51;;;;;;;2.38;0.30;;;16.60;79.80;;;;;;6186948;23;20017;-87
2023/08/07 11:27:20;;;;;;;1.45;0.30;;;16.60;80.40;;;;;;6161072;23;20028;-87
2023/08/07 11:29:49;;;;;;;1.90;0.40;;;16.50;79.80;;;;;;6211058;23;20021;-87
2023/08/07 11:32:16;;;;;;;1.13;0.25;;;16.50;81.00;;;;;;6185635;23;20048;-87
2023/08/07 11:34:51;;;;;;;2.50;0.30;;;16.50;80.80;;;;;;6210348;23;20028;-86
2023/08/07 11:37:19;;;;;;;0.70;0.30;;;16.50;80.90;;;;;;6210298;23;20091;-87
2023/08/07 11:39:46;;;;;;;0.98;0.30;;;16.50;80.30;;;;;;6160945;23;20017;-87
2023/08/07 11:42:13;;;;;;;2.30;0.40;;;16.40;80.50;;;;;;6215355;23;20013;-87
2023/08/07 11:44:41;;;;;;;1.35;0.40;;;16.30;80.70;;;;;;6165526;23;20027;-87
2023/08/07 11:47:10;;;;;;;2.83;0.20;;;16.30;80.50;;;;;;6166087;23;20016;-89
2023/08/07 11:49:37;;;;;;;1.70;0.40;;;16.20;80.70;;;;;;6161335;23;20099;-88
2023/08/07 11:52:05;;;;;;;4.68;0.82;;;16.10;81.40;;;;;;6189839;23;20107;-89
2023/08/07 11:54:32;;;;;;;4.23;0.73;;;16.00;79.90;;;;;;6161295;23;20027;-89
2023/08/07 11:56:59;;;;;;;3.58;0.90;;;15.90;79.50;;;;;;6188169;23;20107;-88
2023/08/07 11:59:26;;;;;;;4.57;1.20;;;15.90;79.40;;;;;;6215464;23;20027;-88
2023/08/07 12:01:53;;;;;;;4.32;1.23;;;16.00;79.30;;;;;;6190630;23;20047;-88
2023/08/07 12:04:20;;;;;;;5.55;1.20;;;16.10;78.50;;;;;;6165130;23;20035;-87
2023/08/07 12:06:54;;;;;;;5.03;1.27;;;16.10;79.60;;;;;;6186241;23;20017;-87
2023/08/07 12:09:22;;;;;;;6.22;1.02;;;16.10;79.30;;;;;;6190669;23;20091;-88
2023/08/07 12:11:49;;;;;;;3.17;0.90;;;16.10;79.80;;;;;;6190294;23;20387;-88
2023/08/07 12:14:17;;;;;;;4.60;1.00;;;16.20;80.50;;;;;;6185446;23;20478;-88
2023/08/07 12:16:47;;;;;;;3.80;0.88;;;16.20;80.70;;;;;;6209963;23;20465;-87
2023/08/07 12:19:16;;;;;;;4.00;0.90;;;16.10;80.00;;;;;;6215343;23;20513;-88
2023/08/07 12:21:43;;;;;;;4.35;0.90;;;16.10;79.80;;;;;;6160276;23;20020;-87
2023/08/07 12:24:13;;;;;;;4.32;0.93;;;16.10;79.40;;;;;;6166459;23;20043;-88
2023/08/07 12:26:40;;;;;;;3.97;0.90;;;16.00;79.80;;;;;;6165439;23;20368;-87
2023/08/07 12:29:07;;;;;;;3.90;0.98;;;16.00;80.70;;;;;;6215180;23;20016;-87
2023/08/07 12:31:35;;;;;;;4.10;1.17;;;16.00;80.60;;;;;;6207918;23;20024;-88
2023/08/07 12:34:05;;;;;;;5.45;1.85;;;15.80;79.90;;;;;;6215078;23;20020;-88
2023/08/07 12:36:35;;;;;;;6.20;1.90;;;15.80;79.90;;;;;;6160300;23;20032;-88
2023/08/07 12:39:02;;;;;;;5.95;1.60;;;15.80;80.50;;;;;;6212804;23;20052;-88
2023/08/07 12:41:30;;;;;;;5.30;1.52;;;15.80;80.70;;;;;;6189981;23;20047;-88
2023/08/07 12:44:01;;;;;;;4.87;1.27;;;15.80;80.60;;;;;;6189966;23;20016;-87
2023/08/07 12:46:28;;;;;;;3.97;1.20;;;15.80;80.30;;;;;;6159891;23;20333;-88
2023/08/07 12:48:58;;;;;;;5.88;1.45;;;15.60;80.30;;;;;;6185275;23;20048;-88
2023/08/07 12:51:25;;;;;;;5.35;1.35;;;15.50;80.40;;;;;;6159955;23;20021;-88
2023/08/07 12:53:53;;;;;;;4.90;1.80;;;15.50;80.80;;;;;;6182648;23;20021;-88